sensor_id;sensor_type;location;lat;lon;timestamp;pressure;altitude;pressure_sealevel;temperature;humidity
48614;BME280;34408;51.426;5.444;2022-07-25T00:02:01;100991.09;;;25.90;47.67
48614;BME280;34408;51.426;5.444;2022-07-25T00:04:32;100987.03;;;25.88;47.74
48614;BME280;34408;51.426;5.444;2022-07-25T00:07:01;100984.91;;;25.85;47.81
48614;BME280;34408;51.426;5.444;2022-07-25T00:09:29;100982.16;;;25.85;47.82
48614;BME280;34408;51.426;5.444;2022-07-25T00:11:57;100977.31;;;25.82;47.73
48614;BME280;34408;51.426;5.444;2022-07-25T00:14:26;100976.50;;;25.81;47.76
48614;BME280;34408;51.426;5.444;2022-07-25T00:16:54;100968.56;;;25.80;47.82
48614;BME280;34408;51.426;5.444;2022-07-25T00:19:21;100950.56;;;25.74;47.73
48614;BME280;34408;51.426;5.444;2022-07-25T00:21:49;100962.38;;;25.74;47.73
48614;BME280;34408;51.426;5.444;2022-07-25T00:24:17;100958.00;;;25.73;47.87
48614;BME280;34408;51.426;5.444;2022-07-25T00:26:45;100955.56;;;25.72;47.99
48614;BME280;34408;51.426;5.444;2022-07-25T00:29:12;100957.03;;;25.69;48.00
48614;BME280;34408;51.426;5.444;2022-07-25T00:31:42;100945.53;;;25.67;47.90
48614;BME280;34408;51.426;5.444;2022-07-25T00:34:09;100950.53;;;25.65;48.01
48614;BME280;34408;51.426;5.444;2022-07-25T00:36:37;100950.03;;;25.63;47.90
48614;BME280;34408;51.426;5.444;2022-07-25T00:39:05;100945.97;;;25.60;47.93
48614;BME280;34408;51.426;5.444;2022-07-25T00:41:33;100941.91;;;25.58;48.00
48614;BME280;34408;51.426;5.444;2022-07-25T00:44:00;100936.72;;;25.56;47.90
48614;BME280;34408;51.426;5.444;2022-07-25T00:46:29;100937.38;;;25.53;47.91
48614;BME280;34408;51.426;5.444;2022-07-25T00:48:58;100943.19;;;25.52;47.88
48614;BME280;34408;51.426;5.444;2022-07-25T00:51:26;100930.06;;;25.49;47.98
48614;BME280;34408;51.426;5.444;2022-07-25T00:53:54;100921.66;;;25.45;47.97
48614;BME280;34408;51.426;5.444;2022-07-25T00:56:23;100925.22;;;25.46;47.90
48614;BME280;34408;51.426;5.444;2022-07-25T00:58:51;100921.97;;;25.44;48.20
48614;BME280;34408;51.426;5.444;2022-07-25T01:01:19;100920.66;;;25.41;48.13
48614;BME280;34408;51.426;5.444;2022-07-25T01:03:47;100928.09;;;25.41;47.93
48614;BME280;34408;51.426;5.444;2022-07-25T01:06:16;100922.44;;;25.37;48.03
48614;BME280;34408;51.426;5.444;2022-07-25T01:08:44;100913.69;;;25.35;47.98
48614;BME280;34408;51.426;5.444;2022-07-25T01:11:12;100889.72;;;25.27;48.10
48614;BME280;34408;51.426;5.444;2022-07-25T01:13:40;100902.50;;;25.32;48.09
48614;BME280;34408;51.426;5.444;2022-07-25T01:16:08;100898.13;;;25.30;47.91
48614;BME280;34408;51.426;5.444;2022-07-25T01:18:36;100891.34;;;25.28;48.16
48614;BME280;34408;51.426;5.444;2022-07-25T01:21:05;100886.16;;;25.26;48.10
48614;BME280;34408;51.426;5.444;2022-07-25T01:23:33;100884.53;;;25.25;47.88
48614;BME280;34408;51.426;5.444;2022-07-25T01:26:01;100885.66;;;25.24;48.17
48614;BME280;34408;51.426;5.444;2022-07-25T01:28:29;100881.28;;;25.23;48.01
48614;BME280;34408;51.426;5.444;2022-07-25T01:30:57;100885.16;;;25.22;47.89
48614;BME280;34408;51.426;5.444;2022-07-25T01:33:24;100881.91;;;25.20;48.01
48614;BME280;34408;51.426;5.444;2022-07-25T01:35:52;100881.13;;;25.20;47.84
48614;BME280;34408;51.426;5.444;2022-07-25T01:38:21;100879.50;;;25.19;47.81
48614;BME280;34408;51.426;5.444;2022-07-25T01:40:49;100877.06;;;25.17;48.05
48614;BME280;34408;51.426;5.444;2022-07-25T01:43:17;100877.06;;;25.17;47.90
48614;BME280;34408;51.426;5.444;2022-07-25T01:45:45;100876.56;;;25.15;48.08
48614;BME280;34408;51.426;5.444;2022-07-25T01:48:13;100869.44;;;25.14;48.09
48614;BME280;34408;51.426;5.444;2022-07-25T01:50:42;100870.56;;;25.13;47.71
48614;BME280;34408;51.426;5.444;2022-07-25T01:53:10;100865.41;;;25.12;47.96
48614;BME280;34408;51.426;5.444;2022-07-25T01:55:39;100858.28;;;25.11;47.93
48614;BME280;34408;51.426;5.444;2022-07-25T01:58:07;100848.72;;;25.08;47.83
48614;BME280;34408;51.426;5.444;2022-07-25T02:00:35;100847.91;;;25.08;47.77
48614;BME280;34408;51.426;5.444;2022-07-25T02:03:02;100841.91;;;25.06;47.79
48614;BME280;34408;51.426;5.444;2022-07-25T02:05:47;100843.03;;;25.05;47.75
48614;BME280;34408;51.426;5.444;2022-07-25T02:08:15;100838.69;;;25.04;47.75
48614;BME280;34408;51.426;5.444;2022-07-25T02:10:44;100832.69;;;25.02;47.72
48614;BME280;34408;51.426;5.444;2022-07-25T02:13:12;100836.56;;;25.01;47.66
48614;BME280;34408;51.426;5.444;2022-07-25T02:15:40;100832.84;;;24.96;47.62
48614;BME280;34408;51.426;5.444;2022-07-25T02:18:08;100835.88;;;24.95;47.65
48614;BME280;34408;51.426;5.444;2022-07-25T02:20:36;100833.44;;;24.93;47.86
48614;BME280;34408;51.426;5.444;2022-07-25T02:23:04;100823.41;;;24.89;47.55
48614;BME280;34408;51.426;5.444;2022-07-25T02:25:32;100826.47;;;24.87;47.61
48614;BME280;34408;51.426;5.444;2022-07-25T02:28:02;100830.34;;;24.86;47.68
48614;BME280;34408;51.426;5.444;2022-07-25T02:30:30;100828.22;;;24.83;47.85
48614;BME280;34408;51.426;5.444;2022-07-25T02:32:58;100823.84;;;24.82;47.83
48614;BME280;34408;51.426;5.444;2022-07-25T02:35:26;100825.94;;;24.77;48.04
48614;BME280;34408;51.426;5.444;2022-07-25T02:37:54;100812.69;;;24.79;47.64
48614;BME280;34408;51.426;5.444;2022-07-25T02:40:22;100816.56;;;24.78;47.72
48614;BME280;34408;51.426;5.444;2022-07-25T02:42:49;100808.94;;;24.75;47.91
48614;BME280;34408;51.426;5.444;2022-07-25T02:45:19;100807.31;;;24.74;47.69
48614;BME280;34408;51.426;5.444;2022-07-25T02:47:47;100807.97;;;24.71;47.74
48614;BME280;34408;51.426;5.444;2022-07-25T02:50:14;100805.53;;;24.69;47.72
48614;BME280;34408;51.426;5.444;2022-07-25T02:52:42;100806.97;;;24.66;47.56
48614;BME280;34408;51.426;5.444;2022-07-25T02:55:10;100807.28;;;24.65;47.70
48614;BME280;34408;51.426;5.444;2022-07-25T02:57:38;100800.19;;;24.64;48.03
48614;BME280;34408;51.426;5.444;2022-07-25T03:00:07;100804.06;;;24.63;47.80
48614;BME280;34408;51.426;5.444;2022-07-25T03:02:36;100806.31;;;24.61;47.70
48614;BME280;34408;51.426;5.444;2022-07-25T03:05:05;100804.19;;;24.58;47.76
48614;BME280;34408;51.426;5.444;2022-07-25T03:07:33;100795.13;;;24.57;47.93
48614;BME280;34408;51.426;5.444;2022-07-25T03:10:02;100795.44;;;24.56;47.60
48614;BME280;34408;51.426;5.444;2022-07-25T03:12:37;100775.22;;;24.52;47.75
48614;BME280;34408;51.426;5.444;2022-07-25T03:15:06;100780.09;;;24.55;47.53
48614;BME280;34408;51.426;5.444;2022-07-25T03:17:34;100776.84;;;24.53;47.99
48614;BME280;34408;51.426;5.444;2022-07-25T03:20:03;100776.53;;;24.54;47.48
48614;BME280;34408;51.426;5.444;2022-07-25T03:22:32;100769.75;;;24.52;47.75
48614;BME280;34408;51.426;5.444;2022-07-25T03:25:00;100776.03;;;24.52;47.49
48614;BME280;34408;51.426;5.444;2022-07-25T03:27:28;100779.91;;;24.51;47.81
48614;BME280;34408;51.426;5.444;2022-07-25T03:29:56;100780.22;;;24.50;47.52
48614;BME280;34408;51.426;5.444;2022-07-25T03:32:25;100766.81;;;24.48;47.63
48614;BME280;34408;51.426;5.444;2022-07-25T03:34:52;100780.56;;;24.48;47.59
48614;BME280;34408;51.426;5.444;2022-07-25T03:37:22;100781.69;;;24.47;47.79
48614;BME280;34408;51.426;5.444;2022-07-25T03:39:49;100769.06;;;24.46;47.80
48614;BME280;34408;51.426;5.444;2022-07-25T03:42:17;100772.44;;;24.43;47.83
48614;BME280;34408;51.426;5.444;2022-07-25T03:44:51;100764.19;;;24.43;47.83
48614;BME280;34408;51.426;5.444;2022-07-25T03:47:19;100772.44;;;24.43;47.88
48614;BME280;34408;51.426;5.444;2022-07-25T03:49:47;100775.50;;;24.42;47.35
48614;BME280;34408;51.426;5.444;2022-07-25T03:52:15;100768.72;;;24.39;47.79
48614;BME280;34408;51.426;5.444;2022-07-25T03:54:44;100767.91;;;24.39;48.01
48614;BME280;34408;51.426;5.444;2022-07-25T03:57:11;100765.47;;;24.37;47.62
48614;BME280;34408;51.426;5.444;2022-07-25T03:59:39;100769.34;;;24.36;47.47
48614;BME280;34408;51.426;5.444;2022-07-25T04:02:07;100764.97;;;24.35;48.05
48614;BME280;34408;51.426;5.444;2022-07-25T04:04:35;100749.63;;;24.34;47.93
48614;BME280;34408;51.426;5.444;2022-07-25T04:07:03;100747.50;;;24.31;47.63
48614;BME280;34408;51.426;5.444;2022-07-25T04:09:30;100753.00;;;24.31;47.55
48614;BME280;34408;51.426;5.444;2022-07-25T04:12:00;100748.94;;;24.28;47.61
48614;BME280;34408;51.426;5.444;2022-07-25T04:14:28;100753.75;;;24.23;48.02
48614;BME280;34408;51.426;5.444;2022-07-25T04:16:56;100757.31;;;24.23;48.03
48614;BME280;34408;51.426;5.444;2022-07-25T04:19:24;100752.16;;;24.22;48.05
48614;BME280;34408;51.426;5.444;2022-07-25T04:21:54;100762.63;;;24.20;48.07
48614;BME280;34408;51.426;5.444;2022-07-25T04:24:22;100755.53;;;24.19;47.87
48614;BME280;34408;51.426;5.444;2022-07-25T04:26:49;100754.22;;;24.16;47.93
48614;BME280;34408;51.426;5.444;2022-07-25T04:29:19;100756.16;;;24.16;47.81
48614;BME280;34408;51.426;5.444;2022-07-25T04:31:46;100751.78;;;24.15;47.76
48614;BME280;34408;51.426;5.444;2022-07-25T04:34:14;100752.72;;;24.10;47.84
48614;BME280;34408;51.426;5.444;2022-07-25T04:36:42;100754.00;;;24.04;48.20
48614;BME280;34408;51.426;5.444;2022-07-25T04:39:10;100755.78;;;24.09;47.81
48614;BME280;34408;51.426;5.444;2022-07-25T04:41:37;100757.41;;;24.10;48.18
48614;BME280;34408;51.426;5.444;2022-07-25T04:44:05;100765.97;;;24.08;48.24
48614;BME280;34408;51.426;5.444;2022-07-25T04:46:36;100763.03;;;24.05;48.18
48614;BME280;34408;51.426;5.444;2022-07-25T04:49:03;100754.00;;;24.04;47.93
48614;BME280;34408;51.426;5.444;2022-07-25T04:51:31;100754.31;;;24.02;47.97
48614;BME280;34408;51.426;5.444;2022-07-25T04:53:59;100754.31;;;24.02;48.42
48614;BME280;34408;51.426;5.444;2022-07-25T04:56:27;100743.31;;;24.02;47.93
48614;BME280;34408;51.426;5.444;2022-07-25T04:58:54;100737.81;;;24.02;48.33
48614;BME280;34408;51.426;5.444;2022-07-25T05:01:27;100747.19;;;24.01;48.21
48614;BME280;34408;51.426;5.444;2022-07-25T05:03:56;100745.88;;;23.99;48.23
48614;BME280;34408;51.426;5.444;2022-07-25T05:06:24;100750.06;;;23.96;48.18
48614;BME280;34408;51.426;5.444;2022-07-25T05:08:51;100746.00;;;23.94;48.00
48614;BME280;34408;51.426;5.444;2022-07-25T05:11:19;100751.19;;;23.95;48.18
48614;BME280;34408;51.426;5.444;2022-07-25T05:13:47;100725.94;;;23.85;48.01
48614;BME280;34408;51.426;5.444;2022-07-25T05:16:15;100748.75;;;23.94;48.42
48614;BME280;34408;51.426;5.444;2022-07-25T05:18:43;100752.31;;;23.94;48.07
48614;BME280;34408;51.426;5.444;2022-07-25T05:21:12;100754.25;;;23.94;48.25
48614;BME280;34408;51.426;5.444;2022-07-25T05:23:40;100751.81;;;23.92;48.20
48614;BME280;34408;51.426;5.444;2022-07-25T05:26:07;100751.00;;;23.92;48.45
48614;BME280;34408;51.426;5.444;2022-07-25T05:28:35;100747.44;;;23.91;48.31
48614;BME280;34408;51.426;5.444;2022-07-25T05:31:04;100752.94;;;23.91;48.08
48614;BME280;34408;51.426;5.444;2022-07-25T05:33:33;100745.84;;;23.90;48.43
48614;BME280;34408;51.426;5.444;2022-07-25T05:36:01;100748.88;;;23.89;48.14
48614;BME280;34408;51.426;5.444;2022-07-25T05:38:31;100759.25;;;23.92;48.09
48614;BME280;34408;51.426;5.444;2022-07-25T05:40:59;100754.06;;;23.90;48.57
48614;BME280;34408;51.426;5.444;2022-07-25T05:43:27;100757.63;;;23.91;48.31
48614;BME280;34408;51.426;5.444;2022-07-25T05:45:59;100760.38;;;23.91;48.54
48614;BME280;34408;51.426;5.444;2022-07-25T05:48:28;100757.31;;;23.92;48.44
48614;BME280;34408;51.426;5.444;2022-07-25T05:50:56;100752.13;;;23.91;48.03
48614;BME280;34408;51.426;5.444;2022-07-25T05:53:24;100763.91;;;23.91;48.61
48614;BME280;34408;51.426;5.444;2022-07-25T05:55:54;100756.81;;;23.90;48.30
48614;BME280;34408;51.426;5.444;2022-07-25T05:58:21;100764.22;;;23.90;48.60
48614;BME280;34408;51.426;5.444;2022-07-25T06:00:55;100759.06;;;23.88;48.66
48614;BME280;34408;51.426;5.444;2022-07-25T06:03:23;100761.81;;;23.88;48.78
48614;BME280;34408;51.426;5.444;2022-07-25T06:05:51;100766.47;;;23.88;48.47
48614;BME280;34408;51.426;5.444;2022-07-25T06:08:21;100771.97;;;23.88;48.67
48614;BME280;34408;51.426;5.444;2022-07-25T06:10:50;100775.84;;;23.87;48.64
48614;BME280;34408;51.426;5.444;2022-07-25T06:13:19;100776.16;;;23.85;48.94
48614;BME280;34408;51.426;5.444;2022-07-25T06:15:48;100778.09;;;23.85;49.02
48614;BME280;34408;51.426;5.444;2022-07-25T06:18:16;100778.09;;;23.85;49.05
48614;BME280;34408;51.426;5.444;2022-07-25T06:20:44;100776.47;;;23.84;48.75
48614;BME280;34408;51.426;5.444;2022-07-25T06:23:12;100783.06;;;23.83;49.26
48614;BME280;34408;51.426;5.444;2022-07-25T06:25:40;100784.50;;;23.80;49.06
48614;BME280;34408;51.426;5.444;2022-07-25T06:28:15;100784.81;;;23.79;49.13
48614;BME280;34408;51.426;5.444;2022-07-25T06:30:45;100786.44;;;23.80;49.22
48614;BME280;34408;51.426;5.444;2022-07-25T06:33:13;100788.69;;;23.78;49.35
48614;BME280;34408;51.426;5.444;2022-07-25T06:35:41;100785.13;;;23.77;48.97
48614;BME280;34408;51.426;5.444;2022-07-25T06:38:09;100789.81;;;23.77;49.25
48614;BME280;34408;51.426;5.444;2022-07-25T06:40:36;100780.53;;;23.86;50.06
48614;BME280;34408;51.426;5.444;2022-07-25T06:43:04;100791.31;;;23.83;48.97
48614;BME280;34408;51.426;5.444;2022-07-25T06:45:32;100798.22;;;23.80;49.04
48614;BME280;34408;51.426;5.444;2022-07-25T06:48:01;100791.44;;;23.78;49.08
48614;BME280;34408;51.426;5.444;2022-07-25T06:50:29;100795.31;;;23.77;49.04
48614;BME280;34408;51.426;5.444;2022-07-25T06:52:57;100795.63;;;23.75;49.68
48614;BME280;34408;51.426;5.444;2022-07-25T06:55:25;100805.47;;;23.76;49.74
48614;BME280;34408;51.426;5.444;2022-07-25T06:57:53;100793.38;;;23.77;49.80
48614;BME280;34408;51.426;5.444;2022-07-25T07:00:21;100788.19;;;23.76;49.63
48614;BME280;34408;51.426;5.444;2022-07-25T07:02:50;100785.75;;;23.74;49.42
48614;BME280;34408;51.426;5.444;2022-07-25T07:05:20;100783.31;;;23.73;49.77
48614;BME280;34408;51.426;5.444;2022-07-25T07:07:48;100784.13;;;23.73;49.32
48614;BME280;34408;51.426;5.444;2022-07-25T07:10:16;100781.69;;;23.72;49.81
48614;BME280;34408;51.426;5.444;2022-07-25T07:12:45;100778.97;;;23.72;49.73
48614;BME280;34408;51.426;5.444;2022-07-25T07:15:13;100784.44;;;23.72;50.00
48614;BME280;34408;51.426;5.444;2022-07-25T07:17:41;100783.63;;;23.71;49.85
48614;BME280;34408;51.426;5.444;2022-07-25T07:20:10;100792.69;;;23.72;49.74
48614;BME280;34408;51.426;5.444;2022-07-25T07:22:44;100770.53;;;23.68;49.81
48614;BME280;34408;51.426;5.444;2022-07-25T07:25:13;100778.28;;;23.66;49.78
48614;BME280;34408;51.426;5.444;2022-07-25T07:27:41;100793.19;;;23.74;50.00
48614;BME280;34408;51.426;5.444;2022-07-25T07:30:10;100784.13;;;23.73;49.99
48614;BME280;34408;51.426;5.444;2022-07-25T07:32:40;100787.19;;;23.72;50.03
48614;BME280;34408;51.426;5.444;2022-07-25T07:35:08;100801.41;;;23.74;50.17
48614;BME280;34408;51.426;5.444;2022-07-25T07:37:37;100797.84;;;23.73;49.97
48614;BME280;34408;51.426;5.444;2022-07-25T07:40:11;100799.47;;;23.74;49.99
48614;BME280;34408;51.426;5.444;2022-07-25T07:42:45;100806.59;;;23.75;49.88
48614;BME280;34408;51.426;5.444;2022-07-25T07:45:15;100804.97;;;23.74;49.84
48614;BME280;34408;51.426;5.444;2022-07-25T07:47:43;100801.91;;;23.76;50.26
48614;BME280;34408;51.426;5.444;2022-07-25T07:50:14;100795.63;;;23.75;50.45
48614;BME280;34408;51.426;5.444;2022-07-25T07:52:43;100809.03;;;23.77;50.05
48614;BME280;34408;51.426;5.444;2022-07-25T07:55:13;100805.97;;;23.78;50.62
48614;BME280;34408;51.426;5.444;2022-07-25T07:57:59;100796.63;;;23.79;50.76
48614;BME280;34408;51.426;5.444;2022-07-25T08:00:27;100800.97;;;23.80;50.45
48614;BME280;34408;51.426;5.444;2022-07-25T08:02:57;100803.41;;;23.82;50.88
48614;BME280;34408;51.426;5.444;2022-07-25T08:05:29;100791.81;;;23.85;50.91
48614;BME280;34408;51.426;5.444;2022-07-25T08:07:58;100794.25;;;23.86;51.16
48614;BME280;34408;51.426;5.444;2022-07-25T08:10:29;100786.00;;;23.86;51.04
48614;BME280;34408;51.426;5.444;2022-07-25T08:12:57;100792.00;;;23.88;51.21
48614;BME280;34408;51.426;5.444;2022-07-25T08:15:25;100798.00;;;23.90;50.95
48614;BME280;34408;51.426;5.444;2022-07-25T08:17:53;100801.53;;;23.91;51.06
48614;BME280;34408;51.426;5.444;2022-07-25T08:20:21;100805.91;;;23.92;51.30
48614;BME280;34408;51.426;5.444;2022-07-25T08:23:05;100805.09;;;23.91;51.35
48614;BME280;34408;51.426;5.444;2022-07-25T08:25:34;100811.41;;;23.92;51.87
48614;BME280;34408;51.426;5.444;2022-07-25T08:28:03;100808.97;;;23.90;52.42
48614;BME280;34408;51.426;5.444;2022-07-25T08:30:33;100804.41;;;23.86;52.41
48614;BME280;34408;51.426;5.444;2022-07-25T08:33:03;100817.19;;;23.90;53.03
48614;BME280;34408;51.426;5.444;2022-07-25T08:35:33;100816.88;;;23.92;52.71
48614;BME280;34408;51.426;5.444;2022-07-25T08:38:02;100823.19;;;23.92;52.29
48614;BME280;34408;51.426;5.444;2022-07-25T08:40:32;100828.50;;;23.89;52.46
48614;BME280;34408;51.426;5.444;2022-07-25T08:43:02;100824.69;;;23.98;52.61
48614;BME280;34408;51.426;5.444;2022-07-25T08:45:31;100821.13;;;23.98;52.57
48614;BME280;34408;51.426;5.444;2022-07-25T08:48:00;100811.97;;;24.02;53.08
48614;BME280;34408;51.426;5.444;2022-07-25T08:50:28;100806.97;;;24.05;52.63
48614;BME280;34408;51.426;5.444;2022-07-25T08:52:56;100817.63;;;24.06;53.19
48614;BME280;34408;51.426;5.444;2022-07-25T08:55:44;100814.56;;;24.08;53.16
48614;BME280;34408;51.426;5.444;2022-07-25T08:58:15;100815.38;;;24.08;53.17
48614;BME280;34408;51.426;5.444;2022-07-25T09:00:44;100817.81;;;24.10;52.94
48614;BME280;34408;51.426;5.444;2022-07-25T09:03:12;100808.16;;;24.12;53.24
48614;BME280;34408;51.426;5.444;2022-07-25T09:05:41;100815.56;;;24.12;53.21
48614;BME280;34408;51.426;5.444;2022-07-25T09:08:11;100807.84;;;24.14;53.29
48614;BME280;34408;51.426;5.444;2022-07-25T09:10:45;100812.19;;;24.15;53.62
48614;BME280;34408;51.426;5.444;2022-07-25T09:13:14;100819.00;;;24.17;53.28
48614;BME280;34408;51.426;5.444;2022-07-25T09:15:44;100826.94;;;24.19;53.59
48614;BME280;34408;51.426;5.444;2022-07-25T09:18:16;100823.56;;;24.22;53.33
48614;BME280;34408;51.426;5.444;2022-07-25T09:20:47;100814.19;;;24.23;53.78
48614;BME280;34408;51.426;5.444;2022-07-25T09:23:27;100824.22;;;24.27;53.22
48614;BME280;34408;51.426;5.444;2022-07-25T09:26:03;100824.72;;;24.29;53.50
48614;BME280;34408;51.426;5.444;2022-07-25T09:28:38;100827.97;;;24.31;53.52
48614;BME280;34408;51.426;5.444;2022-07-25T09:31:08;100833.66;;;24.35;53.72
48614;BME280;34408;51.426;5.444;2022-07-25T09:33:44;100849.00;;;24.36;53.79
48614;BME280;34408;51.426;5.444;2022-07-25T09:36:13;100845.63;;;24.39;53.82
48614;BME280;34408;51.426;5.444;2022-07-25T09:38:51;100856.31;;;24.41;53.99
48614;BME280;34408;51.426;5.444;2022-07-25T09:41:19;100861.16;;;24.44;54.07
48614;BME280;34408;51.426;5.444;2022-07-25T09:43:48;100866.03;;;24.47;53.56
48614;BME280;34408;51.426;5.444;2022-07-25T09:46:16;100861.34;;;24.47;53.51
48614;BME280;34408;51.426;5.444;2022-07-25T09:48:44;100858.91;;;24.46;53.40
48614;BME280;34408;51.426;5.444;2022-07-25T09:51:12;100866.22;;;24.50;53.35
48614;BME280;34408;51.426;5.444;2022-07-25T09:53:40;100863.16;;;24.52;53.36
48614;BME280;34408;51.426;5.444;2022-07-25T09:56:08;100855.72;;;24.52;53.33
48614;BME280;34408;51.426;5.444;2022-07-25T09:58:35;100860.91;;;24.54;53.19
48614;BME280;34408;51.426;5.444;2022-07-25T10:01:05;100865.28;;;24.55;53.22
48614;BME280;34408;51.426;5.444;2022-07-25T10:03:44;100852.97;;;24.52;52.97
48614;BME280;34408;51.426;5.444;2022-07-25T10:06:20;100867.41;;;24.58;53.15
48614;BME280;34408;51.426;5.444;2022-07-25T10:08:48;100863.22;;;24.60;52.96
48614;BME280;34408;51.426;5.444;2022-07-25T10:11:18;100875.31;;;24.59;52.92
48614;BME280;34408;51.426;5.444;2022-07-25T10:13:47;100876.63;;;24.62;53.14
48614;BME280;34408;51.426;5.444;2022-07-25T10:16:17;100873.88;;;24.62;52.96
48614;BME280;34408;51.426;5.444;2022-07-25T10:18:51;100865.31;;;24.63;52.84
48614;BME280;34408;51.426;5.444;2022-07-25T10:21:20;100860.16;;;24.62;52.75
48614;BME280;34408;51.426;5.444;2022-07-25T10:24:01;100865.19;;;24.69;52.58
48614;BME280;34408;51.426;5.444;2022-07-25T10:26:32;100863.25;;;24.69;52.81
48614;BME280;34408;51.426;5.444;2022-07-25T10:29:06;100852.38;;;24.64;52.64
48614;BME280;34408;51.426;5.444;2022-07-25T10:31:40;100869.75;;;24.73;52.17
48614;BME280;34408;51.426;5.444;2022-07-25T10:34:26;100854.88;;;24.74;52.07
48614;BME280;34408;51.426;5.444;2022-07-25T10:36:54;100861.66;;;24.77;52.24
48614;BME280;34408;51.426;5.444;2022-07-25T10:39:22;100855.84;;;24.78;52.40
48614;BME280;34408;51.426;5.444;2022-07-25T10:41:52;100859.91;;;24.81;52.28
48614;BME280;34408;51.426;5.444;2022-07-25T10:44:20;100850.34;;;24.78;51.79
48614;BME280;34408;51.426;5.444;2022-07-25T10:46:49;100861.72;;;24.85;51.87
48614;BME280;34408;51.426;5.444;2022-07-25T10:49:19;100852.81;;;24.88;51.75
48614;BME280;34408;51.426;5.444;2022-07-25T10:51:58;100868.03;;;24.86;51.59
48614;BME280;34408;51.426;5.444;2022-07-25T10:54:31;100863.69;;;24.93;51.75
48614;BME280;34408;51.426;5.444;2022-07-25T10:57:00;100875.97;;;24.96;50.99
48614;BME280;34408;51.426;5.444;2022-07-25T10:59:30;100870.81;;;24.94;50.78
48614;BME280;34408;51.426;5.444;2022-07-25T11:02:00;100863.38;;;24.95;50.71
48614;BME280;34408;51.426;5.444;2022-07-25T11:04:28;100872.94;;;24.97;50.63
48614;BME280;34408;51.426;5.444;2022-07-25T11:06:56;100879.44;;;25.02;50.43
48614;BME280;34408;51.426;5.444;2022-07-25T11:09:26;100885.09;;;25.05;50.32
48614;BME280;34408;51.426;5.444;2022-07-25T11:11:55;100882.84;;;25.07;50.10
48614;BME280;34408;51.426;5.444;2022-07-25T11:14:29;100878.97;;;25.08;49.86
48614;BME280;34408;51.426;5.444;2022-07-25T11:17:11;100886.09;;;25.09;49.96
48614;BME280;34408;51.426;5.444;2022-07-25T11:19:41;100872.94;;;24.97;49.88
48614;BME280;34408;51.426;5.444;2022-07-25T11:22:10;100874.59;;;25.07;49.60
48614;BME280;34408;51.426;5.444;2022-07-25T11:24:40;100879.16;;;25.12;49.95
48614;BME280;34408;51.426;5.444;2022-07-25T11:27:09;100893.56;;;25.17;49.78
48614;BME280;34408;51.426;5.444;2022-07-25T11:29:38;100892.94;;;25.20;49.66
48614;BME280;34408;51.426;5.444;2022-07-25T11:32:10;100886.47;;;25.25;49.90
48614;BME280;34408;51.426;5.444;2022-07-25T11:34:41;100891.34;;;25.28;49.93
48614;BME280;34408;51.426;5.444;2022-07-25T11:37:11;100904.13;;;25.33;49.91
48614;BME280;34408;51.426;5.444;2022-07-25T11:39:42;100902.38;;;25.37;49.60
48614;BME280;34408;51.426;5.444;2022-07-25T11:42:12;100902.22;;;25.42;49.76
48614;BME280;34408;51.426;5.444;2022-07-25T11:44:42;100913.22;;;25.42;49.63
48614;BME280;34408;51.426;5.444;2022-07-25T11:47:27;100913.72;;;25.44;49.24
48614;BME280;34408;51.426;5.444;2022-07-25T11:49:58;100914.53;;;25.44;49.11
48614;BME280;34408;51.426;5.444;2022-07-25T11:52:29;100913.72;;;25.44;49.10
48614;BME280;34408;51.426;5.444;2022-07-25T11:54:59;100925.22;;;25.46;49.21
48614;BME280;34408;51.426;5.444;2022-07-25T11:57:29;100916.13;;;25.45;48.96
48614;BME280;34408;51.426;5.444;2022-07-25T11:59:58;100925.22;;;25.46;48.66
48614;BME280;34408;51.426;5.444;2022-07-25T12:02:29;100924.06;;;25.47;48.45
48614;BME280;34408;51.426;5.444;2022-07-25T12:04:59;100931.84;;;25.45;48.33
48614;BME280;34408;51.426;5.444;2022-07-25T12:07:40;100939.28;;;25.44;48.61
48614;BME280;34408;51.426;5.444;2022-07-25T12:10:13;100948.66;;;25.43;48.25
48614;BME280;34408;51.426;5.444;2022-07-25T12:12:44;100935.22;;;25.42;48.54
48614;BME280;34408;51.426;5.444;2022-07-25T12:15:16;100943.16;;;25.43;48.51
48614;BME280;34408;51.426;5.444;2022-07-25T12:17:46;100941.22;;;25.44;48.54
48614;BME280;34408;51.426;5.444;2022-07-25T12:20:15;100921.16;;;25.43;48.47
48614;BME280;34408;51.426;5.444;2022-07-25T12:22:43;100921.31;;;25.47;48.76
48614;BME280;34408;51.426;5.444;2022-07-25T12:25:11;100939.47;;;25.48;48.76
48614;BME280;34408;51.426;5.444;2022-07-25T12:27:39;100935.09;;;25.47;48.43
48614;BME280;34408;51.426;5.444;2022-07-25T12:30:09;100944.97;;;25.48;48.85
48614;BME280;34408;51.426;5.444;2022-07-25T12:32:37;100944.97;;;25.48;48.85
48614;BME280;34408;51.426;5.444;2022-07-25T12:35:09;100952.91;;;25.49;48.82
48614;BME280;34408;51.426;5.444;2022-07-25T12:37:38;100958.72;;;25.48;48.53
48614;BME280;34408;51.426;5.444;2022-07-25T12:40:08;100952.25;;;25.44;47.88
48614;BME280;34408;51.426;5.444;2022-07-25T12:42:36;100959.03;;;25.46;47.71
48614;BME280;34408;51.426;5.444;2022-07-25T12:45:05;100963.56;;;25.42;47.41
48614;BME280;34408;51.426;5.444;2022-07-25T12:47:34;100961.44;;;25.39;47.38
48614;BME280;34408;51.426;5.444;2022-07-25T12:50:02;100963.72;;;25.37;47.65
48614;BME280;34408;51.426;5.444;2022-07-25T12:52:31;100969.53;;;25.36;47.56
48614;BME280;34408;51.426;5.444;2022-07-25T12:55:00;100964.47;;;25.29;47.37
48614;BME280;34408;51.426;5.444;2022-07-25T12:57:27;100971.78;;;25.34;47.74
48614;BME280;34408;51.426;5.444;2022-07-25T12:59:55;100972.59;;;25.34;47.62
48614;BME280;34408;51.426;5.444;2022-07-25T13:02:23;100983.59;;;25.34;47.42